Time;durP1;ratioP1;P1;durP2;ratioP2;P2;SDS_P1;SDS_P2;PMS_P1;PMS_P2;Temp;Humidity;BMP_temperature;BMP_pressure;BME280_temperature;BME280_humidity;BME280_pressure;Samples;Min_cycle;Max_cycle;Signal;HPM_P1;HPM_P2
2023/11/30 00:03:16;;;;;;;12.02;8.52;;;;;;;;;;12886194;22;20047;-68
2023/11/30 00:08:13;;;;;;;9.40;7.60;;;;;;;;;;12887719;22;20022;-68
2023/11/30 00:13:09;;;;;;;11.35;8.05;;;;;;;;;;12887987;22;20023;-68
2023/11/30 00:18:05;;;;;;;12.93;8.00;;;;;;;;;;12887437;22;20026;-67
2023/11/30 00:23:02;;;;;;;8.60;6.97;;;;;;;;;;12885973;22;20022;-68
2023/11/30 00:27:58;;;;;;;8.93;7.60;;;;;;;;;;12888082;22;20030;-68
2023/11/30 00:32:55;;;;;;;8.90;7.05;;;;;;;;;;12882457;22;20105;-68
2023/11/30 00:37:51;;;;;;;9.93;6.97;;;;;;;;;;12886203;22;20101;-68
2023/11/30 00:42:47;;;;;;;9.43;8.13;;;;;;;;;;12887266;22;20023;-68
2023/11/30 00:47:44;;;;;;;9.20;7.65;;;;;;;;;;12886023;22;20019;-69
2023/11/30 00:52:40;;;;;;;11.77;7.40;;;;;;;;;;12886498;22;20034;-68
2023/11/30 00:57:36;;;;;;;9.50;7.32;;;;;;;;;;12887087;22;20080;-67
2023/11/30 01:02:33;;;;;;;14.32;7.32;;;;;;;;;;12887388;22;20023;-68
2023/11/30 01:07:29;;;;;;;10.02;7.47;;;;;;;;;;12887547;22;20418;-68
2023/11/30 01:12:26;;;;;;;9.18;7.13;;;;;;;;;;12887306;22;20026;-67
2023/11/30 01:17:23;;;;;;;9.98;7.55;;;;;;;;;;12887225;22;20026;-67
2023/11/30 01:22:19;;;;;;;10.57;7.70;;;;;;;;;;12886671;22;20637;-69
2023/11/30 01:27:16;;;;;;;9.40;8.13;;;;;;;;;;12886822;22;20027;-67
2023/11/30 01:32:12;;;;;;;12.63;8.48;;;;;;;;;;12885736;22;20031;-70
2023/11/30 01:37:08;;;;;;;12.95;9.02;;;;;;;;;;12887579;22;20129;-69
2023/11/30 01:42:05;;;;;;;9.63;8.00;;;;;;;;;;12879675;22;20019;-67
2023/11/30 01:47:01;;;;;;;14.02;8.85;;;;;;;;;;12881103;22;20026;-68
2023/11/30 01:51:58;;;;;;;11.55;8.50;;;;;;;;;;12858474;22;20092;-66
2023/11/30 01:56:54;;;;;;;12.20;8.75;;;;;;;;;;12884289;22;20105;-67
2023/11/30 02:01:51;;;;;;;11.07;8.85;;;;;;;;;;12885486;22;20034;-67
2023/11/30 02:06:47;;;;;;;11.40;8.55;;;;;;;;;;12883719;22;20034;-69
2023/11/30 02:11:44;;;;;;;11.82;8.85;;;;;;;;;;12885996;22;20030;-67
2023/11/30 02:16:40;;;;;;;12.80;9.15;;;;;;;;;;12886246;22;20541;-67
2023/11/30 02:21:36;;;;;;;14.75;9.70;;;;;;;;;;12886270;22;20534;-67
2023/11/30 02:26:33;;;;;;;11.43;8.52;;;;;;;;;;12886488;22;20071;-68
2023/11/30 02:31:29;;;;;;;12.13;9.13;;;;;;;;;;12884909;22;20031;-68
2023/11/30 02:36:25;;;;;;;14.43;9.50;;;;;;;;;;12884620;22;20094;-68
2023/11/30 02:41:22;;;;;;;11.13;9.07;;;;;;;;;;12886000;22;20027;-68
2023/11/30 02:46:18;;;;;;;16.52;10.18;;;;;;;;;;12879338;22;20031;-68
2023/11/30 02:51:15;;;;;;;11.48;9.50;;;;;;;;;;12878267;22;20026;-68
2023/11/30 02:56:11;;;;;;;13.80;9.23;;;;;;;;;;12885249;22;20035;-68
2023/11/30 03:01:08;;;;;;;12.20;9.43;;;;;;;;;;12884874;22;20035;-66
2023/11/30 03:06:09;;;;;;;16.08;9.48;;;;;;;;;;12885126;22;20027;-68
2023/11/30 03:11:05;;;;;;;13.83;9.50;;;;;;;;;;12884984;22;20054;-67
2023/11/30 03:16:02;;;;;;;12.43;9.52;;;;;;;;;;12885376;22;20061;-68
2023/11/30 03:20:58;;;;;;;15.20;10.18;;;;;;;;;;12884433;22;20035;-67
2023/11/30 03:25:54;;;;;;;14.38;10.43;;;;;;;;;;12885297;22;20023;-67
2023/11/30 03:30:51;;;;;;;14.70;9.75;;;;;;;;;;12883910;22;20019;-67
2023/11/30 03:35:50;;;;;;;14.32;9.50;;;;;;;;;;12883619;22;20023;-67
2023/11/30 03:40:46;;;;;;;14.52;10.07;;;;;;;;;;12883350;22;20019;-67
2023/11/30 03:45:43;;;;;;;14.02;10.02;;;;;;;;;;12885826;22;20019;-66
2023/11/30 03:50:39;;;;;;;18.25;10.57;;;;;;;;;;12878151;22;20038;-67
2023/11/30 03:55:36;;;;;;;12.85;10.07;;;;;;;;;;12880360;22;20018;-67
2023/11/30 04:00:32;;;;;;;12.27;10.20;;;;;;;;;;12888841;22;20076;-68
2023/11/30 04:05:28;;;;;;;17.45;10.93;;;;;;;;;;12887189;22;20120;-68
2023/11/30 04:10:26;;;;;;;15.73;9.68;;;;;;;;;;12887303;22;20460;-68
2023/11/30 04:15:22;;;;;;;12.77;9.90;;;;;;;;;;12888171;22;20030;-67
2023/11/30 04:20:19;;;;;;;12.07;9.98;;;;;;;;;;12888451;22;20064;-68
2023/11/30 04:25:15;;;;;;;13.68;10.88;;;;;;;;;;12889577;22;20015;-66
2023/11/30 04:30:11;;;;;;;16.67;9.90;;;;;;;;;;12888883;22;20048;-67
2023/11/30 04:35:08;;;;;;;13.93;9.02;;;;;;;;;;12888603;22;20019;-69
2023/11/30 04:40:04;;;;;;;16.92;10.13;;;;;;;;;;12862054;22;20068;-66
2023/11/30 04:45:00;;;;;;;12.63;9.55;;;;;;;;;;12888357;22;20386;-67
2023/11/30 04:49:57;;;;;;;15.90;10.18;;;;;;;;;;12888901;22;20475;-67
2023/11/30 04:54:54;;;;;;;12.52;9.57;;;;;;;;;;12874280;22;20046;-66
2023/11/30 04:59:51;;;;;;;14.23;10.05;;;;;;;;;;12888277;22;20345;-68
2023/11/30 05:04:47;;;;;;;11.85;10.00;;;;;;;;;;12887884;22;20025;-67
2023/11/30 05:09:44;;;;;;;11.75;10.52;;;;;;;;;;12887846;22;20030;-66
2023/11/30 05:14:41;;;;;;;15.65;11.45;;;;;;;;;;12885758;22;20030;-70
2023/11/30 05:19:37;;;;;;;14.32;11.20;;;;;;;;;;12885943;22;20464;-67
2023/11/30 05:24:33;;;;;;;12.63;10.98;;;;;;;;;;12885171;22;20031;-67
2023/11/30 05:29:30;;;;;;;14.65;10.95;;;;;;;;;;12885182;22;20348;-68
2023/11/30 05:34:26;;;;;;;13.23;11.68;;;;;;;;;;12883001;22;20019;-70
2023/11/30 05:39:23;;;;;;;16.38;12.60;;;;;;;;;;12888558;22;20142;-70
2023/11/30 05:44:20;;;;;;;15.75;12.70;;;;;;;;;;12886258;22;20460;-68
2023/11/30 05:49:17;;;;;;;15.60;12.98;;;;;;;;;;12885105;22;20023;-71
2023/11/30 05:54:15;;;;;;;21.63;13.63;;;;;;;;;;12884866;22;20595;-71
2023/11/30 05:59:12;;;;;;;19.33;12.63;;;;;;;;;;12880667;22;20399;-68
2023/11/30 06:04:08;;;;;;;17.45;13.45;;;;;;;;;;12883924;22;20126;-71
2023/11/30 06:09:06;;;;;;;19.67;13.20;;;;;;;;;;12874419;22;20046;-71
2023/11/30 06:14:03;;;;;;;20.45;13.15;;;;;;;;;;12885153;22;20080;-70
2023/11/30 06:19:00;;;;;;;17.30;14.18;;;;;;;;;;12883607;22;20023;-73
2023/11/30 06:23:56;;;;;;;23.45;14.25;;;;;;;;;;12882376;22;20095;-71
2023/11/30 06:28:52;;;;;;;15.88;14.15;;;;;;;;;;12880527;22;20029;-72
2023/11/30 06:33:50;;;;;;;28.23;16.05;;;;;;;;;;12881632;22;20065;-71
2023/11/30 06:38:46;;;;;;;16.00;13.48;;;;;;;;;;12883544;22;20084;-72
2023/11/30 06:43:42;;;;;;;16.33;13.82;;;;;;;;;;12884979;22;20026;-71
2023/11/30 06:48:39;;;;;;;19.05;15.38;;;;;;;;;;12883212;22;20023;-72
2023/11/30 06:53:35;;;;;;;17.73;14.02;;;;;;;;;;12880882;22;20022;-71
2023/11/30 06:58:31;;;;;;;16.48;14.43;;;;;;;;;;12881608;22;20027;-71
2023/11/30 07:03:29;;;;;;;14.38;12.88;;;;;;;;;;12881781;22;20026;-71
2023/11/30 07:08:26;;;;;;;16.52;13.07;;;;;;;;;;12870511;22;20042;-71
2023/11/30 07:13:22;;;;;;;16.98;13.93;;;;;;;;;;12882083;22;20084;-71
2023/11/30 07:18:19;;;;;;;19.25;13.80;;;;;;;;;;12882414;22;20027;-71
2023/11/30 07:23:17;;;;;;;17.00;14.48;;;;;;;;;;12881720;22;20030;-71
2023/11/30 07:28:13;;;;;;;17.45;13.63;;;;;;;;;;12883886;22;20037;-72
2023/11/30 07:33:10;;;;;;;17.55;13.73;;;;;;;;;;12886520;22;20516;-70
2023/11/30 07:38:07;;;;;;;17.85;14.15;;;;;;;;;;12887340;22;20027;-72
2023/11/30 07:43:04;;;;;;;17.05;13.35;;;;;;;;;;12885669;22;20502;-70
2023/11/30 07:48:00;;;;;;;20.02;15.10;;;;;;;;;;12886378;22;20088;-70
2023/11/30 07:52:57;;;;;;;22.23;14.45;;;;;;;;;;12887943;22;20027;-71
2023/11/30 07:57:53;;;;;;;18.55;15.00;;;;;;;;;;12887618;22;20054;-71
2023/11/30 08:02:49;;;;;;;20.05;15.80;;;;;;;;;;12886525;22;20026;-72
2023/11/30 08:07:46;;;;;;;20.77;15.70;;;;;;;;;;12887721;22;20023;-71
2023/11/30 08:12:42;;;;;;;20.40;15.10;;;;;;;;;;12880449;22;20192;-71
2023/11/30 08:17:38;;;;;;;18.80;15.02;;;;;;;;;;12886620;22;20062;-72
2023/11/30 08:22:36;;;;;;;24.00;15.77;;;;;;;;;;12886396;22;20364;-71
2023/11/30 08:27:33;;;;;;;21.40;15.93;;;;;;;;;;12885565;22;20027;-72
2023/11/30 08:32:30;;;;;;;23.20;15.90;;;;;;;;;;12884648;22;20364;-71
2023/11/30 08:37:26;;;;;;;21.25;15.93;;;;;;;;;;12886395;22;20491;-72
2023/11/30 08:42:23;;;;;;;22.42;15.57;;;;;;;;;;12884792;22;20625;-72
2023/11/30 08:47:19;;;;;;;24.15;14.90;;;;;;;;;;12885703;22;20064;-73
2023/11/30 08:52:15;;;;;;;22.58;15.93;;;;;;;;;;12886457;22;20030;-72
2023/11/30 08:57:12;;;;;;;30.45;17.35;;;;;;;;;;12884305;22;20027;-72
2023/11/30 09:02:09;;;;;;;24.27;16.55;;;;;;;;;;12885135;22;20030;-71
2023/11/30 09:07:06;;;;;;;25.42;16.30;;;;;;;;;;12886947;22;20026;-73
2023/11/30 09:12:02;;;;;;;21.33;15.98;;;;;;;;;;12852893;22;20215;-73
2023/11/30 09:16:59;;;;;;;23.15;16.02;;;;;;;;;;12886903;22;20026;-73
2023/11/30 09:21:57;;;;;;;23.65;15.85;;;;;;;;;;12882816;22;20356;-71
2023/11/30 09:26:54;;;;;;;21.88;16.52;;;;;;;;;;12909711;22;20081;-72
2023/11/30 09:31:51;;;;;;;24.75;16.23;;;;;;;;;;12885199;22;20495;-72
2023/11/30 09:36:49;;;;;;;22.92;15.30;;;;;;;;;;12885742;22;20464;-72
2023/11/30 09:41:45;;;;;;;24.08;15.15;;;;;;;;;;12885007;22;20022;-72
2023/11/30 09:46:42;;;;;;;24.77;15.80;;;;;;;;;;12886439;22;20662;-72
2023/11/30 09:51:40;;;;;;;23.45;14.93;;;;;;;;;;12885141;22;20349;-72
2023/11/30 09:56:37;;;;;;;23.75;16.95;;;;;;;;;;12886358;22;20022;-72
2023/11/30 10:01:33;;;;;;;22.58;15.60;;;;;;;;;;12884710;22;20256;-72
2023/11/30 10:06:30;;;;;;;18.67;14.77;;;;;;;;;;12884722;22;20057;-72
2023/11/30 10:11:26;;;;;;;20.67;15.82;;;;;;;;;;12884243;22;20029;-73
2023/11/30 10:16:22;;;;;;;19.50;14.80;;;;;;;;;;12879411;22;20022;-73
2023/11/30 10:21:21;;;;;;;22.08;15.48;;;;;;;;;;12885343;22;20367;-73
2023/11/30 10:26:17;;;;;;;25.83;16.15;;;;;;;;;;12885793;22;20030;-73
2023/11/30 10:31:16;;;;;;;20.48;15.05;;;;;;;;;;12883232;22;20372;-73
2023/11/30 10:36:14;;;;;;;20.75;14.82;;;;;;;;;;12883734;22;20042;-73
2023/11/30 10:41:12;;;;;;;22.73;16.25;;;;;;;;;;12882766;22;20030;-74
2023/11/30 10:46:09;;;;;;;23.17;16.08;;;;;;;;;;12881848;22;20064;-74
2023/11/30 10:51:07;;;;;;;23.98;17.23;;;;;;;;;;12882458;22;20128;-74
2023/11/30 10:56:05;;;;;;;19.45;14.90;;;;;;;;;;12881915;22;20109;-73
2023/11/30 11:01:02;;;;;;;20.73;14.82;;;;;;;;;;12883028;22;20026;-75
2023/11/30 11:06:02;;;;;;;24.50;15.80;;;;;;;;;;12884347;22;20076;-74
2023/11/30 11:11:05;;;;;;;19.38;14.57;;;;;;;;;;12883835;22;20022;-75
2023/11/30 11:16:06;;;;;;;21.80;14.93;;;;;;;;;;12884095;22;20099;-74
2023/11/30 11:21:03;;;;;;;18.40;15.27;;;;;;;;;;12883995;22;20027;-74
2023/11/30 11:26:00;;;;;;;19.65;14.35;;;;;;;;;;12851361;22;20468;-74
2023/11/30 11:30:57;;;;;;;17.75;14.32;;;;;;;;;;12879890;22;20023;-72
2023/11/30 11:35:54;;;;;;;18.08;14.20;;;;;;;;;;12884605;22;20106;-73
2023/11/30 11:40:52;;;;;;;18.10;14.27;;;;;;;;;;12881379;22;20029;-74
2023/11/30 11:45:48;;;;;;;17.65;14.02;;;;;;;;;;12883215;22;20072;-74
2023/11/30 11:50:55;;;;;;;19.15;14.30;;;;;;;;;;12882940;22;20595;-74
2023/11/30 11:55:51;;;;;;;16.52;12.57;;;;;;;;;;12878493;22;20030;-73
2023/11/30 12:00:53;;;;;;;15.32;12.13;;;;;;;;;;12880491;22;20072;-74
2023/11/30 12:05:51;;;;;;;16.65;12.82;;;;;;;;;;12883411;22;20019;-74
2023/11/30 12:10:50;;;;;;;17.85;12.40;;;;;;;;;;12882081;22;20337;-73
2023/11/30 12:15:46;;;;;;;13.40;12.00;;;;;;;;;;12882833;22;20022;-73
2023/11/30 12:20:45;;;;;;;16.65;12.68;;;;;;;;;;12885812;22;20448;-73
2023/11/30 12:25:45;;;;;;;18.50;11.93;;;;;;;;;;12887129;22;20391;-73
2023/11/30 12:30:41;;;;;;;15.30;11.88;;;;;;;;;;12879839;22;20091;-72
2023/11/30 12:35:38;;;;;;;14.00;11.85;;;;;;;;;;12886037;22;20019;-73
2023/11/30 12:40:35;;;;;;;14.55;11.70;;;;;;;;;;12885990;22;20093;-72
2023/11/30 12:45:31;;;;;;;14.27;12.25;;;;;;;;;;12884277;22;20022;-73
2023/11/30 12:50:28;;;;;;;16.80;12.80;;;;;;;;;;12884957;22;20022;-72
2023/11/30 12:55:24;;;;;;;14.95;12.82;;;;;;;;;;12858804;22;20021;-73
2023/11/30 13:00:21;;;;;;;15.95;12.70;;;;;;;;;;12886498;22;20080;-74
2023/11/30 13:05:18;;;;;;;14.80;12.00;;;;;;;;;;12884578;22;20278;-73
2023/11/30 13:10:15;;;;;;;16.15;12.93;;;;;;;;;;12884123;22;20072;-73
2023/11/30 13:15:12;;;;;;;16.00;13.07;;;;;;;;;;12883776;22;20044;-74
2023/11/30 13:20:12;;;;;;;13.65;12.10;;;;;;;;;;12885302;22;20019;-73
2023/11/30 13:25:11;;;;;;;13.55;11.50;;;;;;;;;;12884895;22;20367;-72
2023/11/30 13:30:08;;;;;;;15.20;11.63;;;;;;;;;;12879323;22;20513;-73
2023/11/30 13:35:06;;;;;;;16.50;11.13;;;;;;;;;;12886312;22;20019;-72
2023/11/30 13:40:05;;;;;;;12.85;10.70;;;;;;;;;;12885857;22;20019;-73
2023/11/30 13:45:02;;;;;;;13.15;10.88;;;;;;;;;;12887020;22;20018;-74
2023/11/30 13:49:58;;;;;;;13.75;10.32;;;;;;;;;;12886645;22;20468;-72
2023/11/30 13:54:55;;;;;;;15.13;12.10;;;;;;;;;;12882634;22;20023;-72
2023/11/30 13:59:51;;;;;;;16.55;13.48;;;;;;;;;;12884560;22;20120;-74
2023/11/30 14:04:49;;;;;;;16.55;13.50;;;;;;;;;;12884677;22;20056;-73
2023/11/30 14:09:45;;;;;;;18.33;14.98;;;;;;;;;;12885014;22;20367;-75
2023/11/30 14:14:41;;;;;;;18.58;13.85;;;;;;;;;;12883048;22;20064;-74
2023/11/30 14:19:38;;;;;;;18.13;15.32;;;;;;;;;;12883905;22;20030;-72
2023/11/30 14:24:34;;;;;;;18.52;14.52;;;;;;;;;;12884012;22;20058;-72
2023/11/30 14:29:31;;;;;;;18.13;14.75;;;;;;;;;;12885076;22;20027;-73
2023/11/30 14:34:27;;;;;;;19.85;15.27;;;;;;;;;;12885037;22;20479;-73
2023/11/30 14:39:27;;;;;;;18.10;15.75;;;;;;;;;;12868657;22;20188;-72
2023/11/30 14:44:25;;;;;;;20.17;15.80;;;;;;;;;;12879414;22;20076;-72
2023/11/30 14:49:22;;;;;;;17.90;15.32;;;;;;;;;;12879627;22;20364;-72
2023/11/30 14:54:18;;;;;;;19.05;15.68;;;;;;;;;;12878500;22;20049;-72
2023/11/30 14:59:15;;;;;;;18.98;14.80;;;;;;;;;;12881088;22;20031;-73
2023/11/30 15:04:11;;;;;;;17.38;13.88;;;;;;;;;;12879133;22;20026;-73
2023/11/30 15:09:08;;;;;;;18.67;14.77;;;;;;;;;;12870722;22;20031;-73
2023/11/30 15:14:05;;;;;;;17.17;14.40;;;;;;;;;;12874054;22;20037;-74
2023/11/30 15:19:01;;;;;;;16.50;14.80;;;;;;;;;;12884066;22;20027;-74
2023/11/30 15:23:58;;;;;;;16.52;13.82;;;;;;;;;;12881904;22;20080;-73
2023/11/30 15:28:54;;;;;;;15.02;13.52;;;;;;;;;;12883721;22;20084;-71
2023/11/30 15:33:51;;;;;;;15.88;12.80;;;;;;;;;;12855373;22;20389;-74
2023/11/30 15:38:47;;;;;;;14.07;12.10;;;;;;;;;;12881298;22;20054;-73
2023/11/30 15:43:44;;;;;;;16.10;12.20;;;;;;;;;;12875533;22;20044;-71
2023/11/30 15:48:40;;;;;;;14.90;12.43;;;;;;;;;;12888372;22;20018;-72
2023/11/30 15:53:37;;;;;;;14.35;12.35;;;;;;;;;;12879904;22;20053;-72
2023/11/30 15:58:33;;;;;;;12.70;11.43;;;;;;;;;;12881305;22;20026;-73
2023/11/30 16:03:29;;;;;;;17.40;13.73;;;;;;;;;;12883882;22;20378;-73
2023/11/30 16:08:26;;;;;;;18.45;12.85;;;;;;;;;;12885417;22;20080;-74
2023/11/30 16:19:08;;;;;;;15.20;12.93;;;;;;;;;;12816330;22;20548;-72
2023/11/30 16:24:18;;;;;;;;;;;;;;;;;;;;;
2023/11/30 16:29:17;;;;;;;16.52;12.88;;;;;;;;;;12881191;22;19998;-73
2023/11/30 16:34:30;;;;;;;15.30;12.50;;;;;;;;;;12878968;22;20045;-73
2023/11/30 16:39:48;;;;;;;14.32;12.80;;;;;;;;;;12864753;22;20045;-72
2023/11/30 16:44:45;;;;;;;16.23;13.48;;;;;;;;;;12883769;22;20098;-72
2023/11/30 16:49:41;;;;;;;17.75;12.85;;;;;;;;;;12883553;22;20027;-72
2023/11/30 16:54:37;;;;;;;18.35;13.65;;;;;;;;;;12880957;22;20022;-72
2023/11/30 16:59:34;;;;;;;16.98;12.65;;;;;;;;;;12883337;22;20409;-74
2023/11/30 17:04:33;;;;;;;15.60;13.30;;;;;;;;;;12877158;22;20022;-72
2023/11/30 17:09:30;;;;;;;17.65;13.40;;;;;;;;;;12881495;22;20656;-73
2023/11/30 17:14:26;;;;;;;15.00;13.13;;;;;;;;;;12886751;22;20019;-72
2023/11/30 17:19:23;;;;;;;17.98;12.90;;;;;;;;;;12888496;22;20026;-72
2023/11/30 17:24:58;;;;;;;14.98;12.88;;;;;;;;;;12846077;22;20085;-71
2023/11/30 17:42:59;;;;;;;20.65;13.88;;;;;;;;;;12439874;23;20024;-72
2023/11/30 17:49:14;;;;;;;;;;;;;;;;;;;;;
2023/11/30 17:55:03;;;;;;;18.73;13.13;;;;;;;;;;12595646;22;20029;-73
2023/11/30 18:00:26;;;;;;;16.00;12.43;;;;;;;;;;12688930;23;20679;-73
2023/11/30 18:05:54;;;;;;;22.00;13.52;;;;;;;;;;12682745;23;20482;-73
2023/11/30 18:11:02;;;;;;;18.02;13.38;;;;;;;;;;12684400;23;20583;-73
2023/11/30 18:15:59;;;;;;;16.60;14.00;;;;;;;;;;12707628;22;20074;-73
2023/11/30 18:20:59;;;;;;;20.52;12.77;;;;;;;;;;12806591;22;20465;-72
2023/11/30 18:25:55;;;;;;;20.13;12.48;;;;;;;;;;12816912;22;20023;-73
2023/11/30 18:30:52;;;;;;;17.40;13.15;;;;;;;;;;12815385;22;20107;-73
2023/11/30 18:35:51;;;;;;;17.25;12.45;;;;;;;;;;12819775;22;20445;-74
2023/11/30 18:40:48;;;;;;;17.15;11.80;;;;;;;;;;12826746;22;20364;-74
2023/11/30 18:45:44;;;;;;;16.98;13.20;;;;;;;;;;12827089;22;20026;-73
2023/11/30 18:50:41;;;;;;;23.80;12.82;;;;;;;;;;12824776;22;20026;-73
2023/11/30 18:55:40;;;;;;;17.45;12.55;;;;;;;;;;12798543;22;20017;-73
2023/11/30 19:00:37;;;;;;;18.75;13.48;;;;;;;;;;12821692;22;20536;-72
2023/11/30 19:05:35;;;;;;;19.70;13.32;;;;;;;;;;12817349;22;20395;-72
2023/11/30 19:10:32;;;;;;;16.33;11.65;;;;;;;;;;12823048;22;20019;-73
2023/11/30 19:15:30;;;;;;;14.75;11.18;;;;;;;;;;12820000;22;20386;-72
2023/11/30 19:20:27;;;;;;;20.63;11.70;;;;;;;;;;12815502;22;20048;-72
2023/11/30 19:25:23;;;;;;;18.92;12.75;;;;;;;;;;12821671;22;20350;-72
2023/11/30 19:30:21;;;;;;;15.57;12.30;;;;;;;;;;12825688;22;20638;-72
2023/11/30 19:35:18;;;;;;;17.75;12.18;;;;;;;;;;12824940;22;20022;-72
2023/11/30 19:40:15;;;;;;;17.15;13.07;;;;;;;;;;12826298;22;20015;-72
2023/11/30 19:45:11;;;;;;;18.40;12.68;;;;;;;;;;12826035;22;20440;-72
2023/11/30 19:50:09;;;;;;;20.55;13.43;;;;;;;;;;12825575;22;20019;-72
2023/11/30 19:55:06;;;;;;;19.52;13.05;;;;;;;;;;12824555;22;20054;-72
2023/11/30 20:00:05;;;;;;;18.73;12.88;;;;;;;;;;12848302;22;20023;-72
2023/11/30 20:05:03;;;;;;;20.15;12.98;;;;;;;;;;12822357;22;20353;-72
2023/11/30 20:09:59;;;;;;;18.60;12.60;;;;;;;;;;12808413;22;20019;-70
2023/11/30 20:14:56;;;;;;;18.02;12.73;;;;;;;;;;12816948;22;20019;-66
2023/11/30 20:19:52;;;;;;;20.25;13.52;;;;;;;;;;12817363;22;20473;-66
2023/11/30 20:24:49;;;;;;;22.48;13.82;;;;;;;;;;12814366;22;20019;-68
2023/11/30 20:29:46;;;;;;;19.70;13.40;;;;;;;;;;12820779;22;20034;-67
2023/11/30 20:34:42;;;;;;;21.52;12.90;;;;;;;;;;12820474;22;20109;-66
2023/11/30 20:39:38;;;;;;;17.10;12.63;;;;;;;;;;12821529;22;20019;-66
2023/11/30 20:44:35;;;;;;;19.48;12.93;;;;;;;;;;12823372;22;20026;-66
2023/11/30 20:49:31;;;;;;;21.67;12.65;;;;;;;;;;12822783;22;20588;-67
2023/11/30 20:54:28;;;;;;;16.73;11.88;;;;;;;;;;12819724;22;20023;-67
2023/11/30 20:59:25;;;;;;;18.02;11.85;;;;;;;;;;12820019;22;20027;-67
2023/11/30 21:04:22;;;;;;;17.65;12.25;;;;;;;;;;12822329;22;20023;-67
2023/11/30 21:09:18;;;;;;;17.58;12.73;;;;;;;;;;12821797;22;20024;-67
2023/11/30 21:14:15;;;;;;;17.23;12.35;;;;;;;;;;12815325;22;20046;-67
2023/11/30 21:19:11;;;;;;;13.40;11.57;;;;;;;;;;12822529;22;20342;-68
2023/11/30 21:24:07;;;;;;;16.38;11.80;;;;;;;;;;12817048;22;20102;-66
2023/11/30 21:29:04;;;;;;;14.95;11.48;;;;;;;;;;12823002;22;20031;-67
2023/11/30 21:34:00;;;;;;;16.38;11.68;;;;;;;;;;12822376;22;20027;-67
2023/11/30 21:38:56;;;;;;;15.95;12.48;;;;;;;;;;12823506;22;20023;-67
2023/11/30 21:43:53;;;;;;;17.13;12.57;;;;;;;;;;12822664;22;20047;-67
2023/11/30 21:48:51;;;;;;;15.15;11.45;;;;;;;;;;12847429;22;20094;-67
2023/11/30 21:53:48;;;;;;;15.13;11.68;;;;;;;;;;12822563;22;20027;-67
2023/11/30 21:58:45;;;;;;;17.95;11.77;;;;;;;;;;12822610;22;20023;-67
2023/11/30 22:03:41;;;;;;;17.60;11.52;;;;;;;;;;12822682;22;20421;-67
2023/11/30 22:08:38;;;;;;;16.98;12.75;;;;;;;;;;12822478;22;20062;-67
2023/11/30 22:13:34;;;;;;;18.50;12.27;;;;;;;;;;12822452;22;20027;-68
2023/11/30 22:18:31;;;;;;;17.60;11.13;;;;;;;;;;12822188;22;20026;-67
2023/11/30 22:23:29;;;;;;;16.58;11.82;;;;;;;;;;12846707;22;20027;-66
2023/11/30 22:28:26;;;;;;;21.00;12.80;;;;;;;;;;12817469;22;20027;-67
2023/11/30 22:33:22;;;;;;;18.38;12.52;;;;;;;;;;12822209;22;20027;-67
2023/11/30 22:38:18;;;;;;;14.20;11.40;;;;;;;;;;12816332;22;20030;-67
2023/11/30 22:43:15;;;;;;;16.88;11.55;;;;;;;;;;12821449;22;20034;-67
2023/11/30 22:48:11;;;;;;;16.17;11.80;;;;;;;;;;12821622;22;20019;-67
2023/11/30 22:53:07;;;;;;;18.00;12.65;;;;;;;;;;12821590;22;20023;-66
2023/11/30 22:58:04;;;;;;;16.30;12.05;;;;;;;;;;12820711;22;20055;-67
2023/11/30 23:03:00;;;;;;;17.77;11.68;;;;;;;;;;12820876;22;20977;-67
2023/11/30 23:07:57;;;;;;;16.08;11.52;;;;;;;;;;12821317;22;20106;-66
2023/11/30 23:12:53;;;;;;;16.38;11.75;;;;;;;;;;12823028;22;20500;-66
2023/11/30 23:17:50;;;;;;;16.88;11.68;;;;;;;;;;12822678;22;20513;-67
2023/11/30 23:22:46;;;;;;;17.75;11.65;;;;;;;;;;12821819;22;20077;-65
2023/11/30 23:27:43;;;;;;;15.82;11.52;;;;;;;;;;12821325;22;20023;-65
2023/11/30 23:32:39;;;;;;;18.23;12.02;;;;;;;;;;12814893;22;20027;-65
2023/11/30 23:37:35;;;;;;;14.68;11.07;;;;;;;;;;12816114;22;20033;-66
2023/11/30 23:42:32;;;;;;;15.57;11.57;;;;;;;;;;12820672;22;20090;-66
2023/11/30 23:47:28;;;;;;;17.30;10.77;;;;;;;;;;12821997;22;20137;-67
2023/11/30 23:52:25;;;;;;;14.27;11.00;;;;;;;;;;12820839;22;20027;-67
2023/11/30 23:57:21;;;;;;;18.88;12.43;;;;;;;;;;12821705;22;20030;-67
